createdAt,value
2018-04-29T00:00:16.393Z,0
2018-04-29T00:01:15.569Z,0
2018-04-29T00:02:15.307Z,0
2018-04-29T00:03:15.567Z,0
2018-04-29T00:04:15.332Z,0
2018-04-29T00:05:17.054Z,0
2018-04-29T00:06:15.568Z,0
2018-04-29T00:07:15.309Z,0
2018-04-29T00:08:15.069Z,0
2018-04-29T00:09:15.310Z,0
2018-04-29T00:10:17.353Z,0
2018-04-29T00:11:15.296Z,0
2018-04-29T00:12:15.559Z,0
2018-04-29T00:13:15.053Z,0
2018-04-29T00:14:15.570Z,0
2018-04-29T00:15:17.359Z,0
2018-04-29T00:16:15.298Z,0
2018-04-29T00:17:15.053Z,0
2018-04-29T00:18:15.572Z,0
2018-04-29T00:19:15.554Z,0
2018-04-29T00:20:17.404Z,0
2018-04-29T00:21:15.280Z,0
2018-04-29T00:22:15.277Z,0
2018-04-29T00:23:15.521Z,0
2018-04-29T00:24:15.533Z,0
2018-04-29T00:25:16.922Z,0
2018-04-29T00:26:15.552Z,0
2018-04-29T00:27:15.282Z,0
2018-04-29T00:28:15.033Z,0
2018-04-29T00:29:15.272Z,0
2018-04-29T00:30:17.580Z,0
2018-04-29T00:31:15.280Z,0
2018-04-29T00:32:15.270Z,0
2018-04-29T00:33:15.255Z,0
2018-04-29T00:34:15.511Z,0
2018-04-29T00:35:16.444Z,0
2018-04-29T00:36:15.261Z,0
2018-04-29T00:37:15.015Z,0
2018-04-29T00:38:15.533Z,0
2018-04-29T00:39:15.263Z,0
2018-04-29T00:40:16.509Z,0
2018-04-29T00:41:15.327Z,0
2018-04-29T00:42:15.518Z,0
2018-04-29T00:43:15.264Z,0
2018-04-29T00:44:15.265Z,0
2018-04-29T00:45:16.844Z,0
2018-04-29T00:46:15.269Z,0
2018-04-29T00:47:15.516Z,0
2018-04-29T00:48:15.521Z,0
2018-04-29T00:49:15.260Z,0
2018-04-29T00:57:33.726Z,0
2018-04-29T00:58:09.359Z,0
2018-04-29T00:59:09.788Z,0
2018-04-29T01:00:09.568Z,0
2018-04-29T01:01:09.134Z,0
2018-04-29T01:02:08.883Z,0
2018-04-29T01:03:09.697Z,0
2018-04-29T01:04:09.354Z,0
2018-04-29T01:05:09.525Z,0
2018-04-29T01:06:09.210Z,0
2018-04-29T01:07:09.382Z,0
2018-04-29T01:08:09.721Z,0
2018-04-29T01:09:09.119Z,0
2018-04-29T01:10:09.257Z,0
2018-04-29T01:11:08.909Z,0
2018-04-29T01:12:09.353Z,0
2018-04-29T01:13:09.947Z,0
2018-04-29T01:14:09.112Z,0
2018-04-29T01:15:09.485Z,0
2018-04-29T01:16:09.096Z,0
2018-04-29T01:17:09.112Z,0
2018-04-29T01:18:09.663Z,0
2018-04-29T01:19:09.343Z,0
2018-04-29T01:20:09.561Z,0
2018-04-29T01:21:09.351Z,0
2018-04-29T01:22:09.111Z,0
2018-04-29T01:23:09.234Z,0
2018-04-29T01:24:08.839Z,0
2018-04-29T01:25:09.498Z,0
2018-04-29T01:26:09.338Z,0
2018-04-29T01:27:08.860Z,0
2018-04-29T01:28:09.400Z,0
2018-04-29T01:29:08.835Z,0
2018-04-29T01:30:08.799Z,0
2018-04-29T01:31:09.091Z,0
2018-04-29T01:32:09.327Z,0
2018-04-29T01:33:08.839Z,0
2018-04-29T01:34:09.085Z,0
2018-04-29T01:35:09.696Z,0
2018-04-29T01:36:09.322Z,0
2018-04-29T01:37:09.332Z,0
2018-04-29T01:38:09.109Z,0
2018-04-29T01:39:09.083Z,0
2018-04-29T01:40:09.732Z,0
2018-04-29T01:41:09.346Z,0
2018-04-29T01:42:08.837Z,0
2018-04-29T01:43:09.107Z,0
2018-04-29T01:44:09.103Z,0
2018-04-29T01:45:09.486Z,0
2018-04-29T01:46:09.314Z,0
2018-04-29T01:47:09.062Z,0
2018-04-29T01:48:09.310Z,0
2018-04-29T01:49:09.304Z,0
2018-04-29T01:50:09.475Z,0
2018-04-29T01:51:09.070Z,0
2018-04-29T01:52:09.310Z,0
2018-04-29T01:53:09.303Z,0
2018-04-29T01:54:09.367Z,0
2018-04-29T01:55:09.745Z,0
2018-04-29T01:56:09.053Z,0
2018-04-29T01:57:08.785Z,0
2018-04-29T01:58:09.297Z,0
2018-04-29T01:59:09.049Z,0
2018-04-29T02:00:09.454Z,0
2018-04-29T02:01:09.309Z,0
2018-04-29T02:02:09.305Z,0
2018-04-29T02:03:09.275Z,0
2018-04-29T02:04:08.785Z,0
2018-04-29T02:05:09.723Z,0
2018-04-29T02:06:09.277Z,0
2018-04-29T02:07:09.033Z,0
2018-04-29T02:08:08.520Z,0
2018-04-29T02:09:09.292Z,0
2018-04-29T02:10:09.717Z,0
2018-04-29T02:11:09.129Z,0
2018-04-29T02:12:09.283Z,0
2018-04-29T02:13:09.279Z,0
2018-04-29T02:14:09.025Z,0
2018-04-29T02:15:08.710Z,0
2018-04-29T02:16:09.023Z,0
2018-04-29T02:17:08.511Z,0
2018-04-29T02:18:09.043Z,0
2018-04-29T02:19:09.283Z,0
2018-04-29T02:20:09.677Z,0
2018-04-29T02:21:09.284Z,0
2018-04-29T02:22:08.767Z,0
2018-04-29T02:23:09.285Z,0
2018-04-29T02:24:09.332Z,0
2018-04-29T02:25:09.713Z,0
2018-04-29T02:26:09.022Z,0
2018-04-29T02:27:09.046Z,0
2018-04-29T02:28:09.002Z,0
2018-04-29T02:29:09.254Z,0
2018-04-29T02:30:09.665Z,0
2018-04-29T02:31:09.259Z,0
2018-04-29T02:32:09.009Z,0
2018-04-29T02:33:09.051Z,0
2018-04-29T02:34:08.994Z,0
2018-04-29T02:35:09.539Z,0
2018-04-29T02:36:08.747Z,0
2018-04-29T02:37:09.308Z,0
2018-04-29T02:38:09.258Z,0
2018-04-29T02:39:08.992Z,0
2018-04-29T02:40:09.048Z,0
2018-04-29T02:41:09.241Z,0
2018-04-29T02:42:09.245Z,0
2018-04-29T02:43:09.243Z,0
2018-04-29T02:44:08.994Z,0
2018-04-29T02:45:09.388Z,0
2018-04-29T02:46:09.230Z,0
2018-04-29T02:47:08.995Z,0
2018-04-29T02:48:08.978Z,0
2018-04-29T02:49:08.997Z,0
2018-04-29T02:50:09.666Z,0
2018-04-29T02:51:09.228Z,0
2018-04-29T02:52:08.970Z,0
2018-04-29T02:53:09.229Z,0
2018-04-29T02:54:09.233Z,0
2018-04-29T02:55:09.415Z,0
2018-04-29T02:56:08.967Z,0
2018-04-29T02:57:09.243Z,0
2018-04-29T02:58:08.976Z,0
2018-04-29T02:59:08.954Z,0
2018-04-29T03:00:09.626Z,0
2018-04-29T03:01:09.336Z,0
2018-04-29T03:02:09.242Z,0
2018-04-29T03:03:08.955Z,0
2018-04-29T03:04:09.212Z,0
2018-04-29T03:05:09.616Z,0
2018-04-29T03:06:08.991Z,0
2018-04-29T03:07:08.947Z,0
2018-04-29T03:08:08.946Z,0
2018-04-29T03:09:09.211Z,0
2018-04-29T03:10:09.622Z,0
2018-04-29T03:11:09.196Z,0
2018-04-29T03:12:09.210Z,0
2018-04-29T03:13:08.939Z,0
2018-04-29T03:14:09.193Z,0
2018-04-29T03:15:09.243Z,0
2018-04-29T03:16:08.926Z,0
2018-04-29T03:17:08.928Z,0
2018-04-29T03:18:08.951Z,0
2018-04-29T03:19:09.208Z,0
2018-04-29T03:20:09.604Z,0
2018-04-29T03:21:08.916Z,0
2018-04-29T03:22:09.907Z,0
2018-04-29T03:23:08.982Z,0
2018-04-29T03:24:09.439Z,0
2018-04-29T03:25:09.820Z,0
2018-04-29T03:26:08.796Z,0
2018-04-29T03:27:09.055Z,0
2018-04-29T03:28:08.660Z,0
2018-04-29T03:29:09.172Z,0
2018-04-29T03:38:18.615Z,4
2018-04-29T03:39:18.619Z,8
2018-04-29T03:40:19.859Z,8
2018-04-29T03:41:18.627Z,4
2018-04-29T03:42:18.369Z,8
2018-04-29T03:43:20.251Z,12
2018-04-29T03:44:18.362Z,8
2018-04-29T03:45:19.111Z,12
2018-04-29T03:46:18.380Z,16
2018-04-29T03:47:18.103Z,20
2018-04-29T03:48:18.348Z,20
2018-04-29T03:49:17.851Z,24
2018-04-29T03:50:19.577Z,24
2018-04-29T03:51:18.606Z,32
2018-04-29T03:52:18.605Z,36
2018-04-29T03:53:18.368Z,40
2018-04-29T03:54:18.329Z,48
2018-04-29T03:55:19.160Z,52
2018-04-29T03:56:18.607Z,60
2018-04-29T03:57:17.828Z,64
2018-04-29T03:58:18.527Z,76
2018-04-29T03:59:18.323Z,84
2018-04-29T04:00:20.083Z,92
2018-04-29T04:01:18.318Z,100
2018-04-29T04:02:18.320Z,112
2018-04-29T04:03:18.566Z,120
2018-04-29T04:04:18.564Z,132
2018-04-29T04:05:19.524Z,144
2018-04-29T04:06:18.314Z,160
2018-04-29T04:07:18.610Z,172
2018-04-29T04:08:18.554Z,184
2018-04-29T04:09:18.305Z,204
2018-04-29T04:10:19.684Z,220
2018-04-29T04:11:18.061Z,236
2018-04-29T04:12:18.555Z,256
2018-04-29T04:13:19.695Z,272
2018-04-29T04:14:18.293Z,292
2018-04-29T04:15:20.134Z,320
2018-04-29T04:16:18.047Z,340
2018-04-29T04:17:18.044Z,364
2018-04-29T04:18:18.278Z,388
2018-04-29T04:19:18.280Z,416
2018-04-29T04:20:18.996Z,440
2018-04-29T04:21:18.530Z,464
2018-04-29T04:22:18.533Z,492
2018-04-29T04:23:18.276Z,512
2018-04-29T04:24:18.277Z,532
2018-04-29T04:25:18.999Z,552
2018-04-29T04:26:18.512Z,572
2018-04-29T04:27:18.276Z,596
2018-04-29T04:28:18.271Z,612
2018-04-29T04:29:18.261Z,636
2018-04-29T04:30:19.495Z,660
2018-04-29T04:31:18.512Z,680
2018-04-29T04:32:18.506Z,708
2018-04-29T04:33:18.244Z,728
2018-04-29T04:34:18.644Z,752
2018-04-29T04:35:20.063Z,776
2018-04-29T04:36:18.264Z,804
2018-04-29T04:37:18.499Z,832
2018-04-29T04:38:18.489Z,868
2018-04-29T04:39:18.267Z,912
2018-04-29T04:40:19.543Z,960
2018-04-29T04:41:18.473Z,1032
2018-04-29T04:42:17.994Z,1096
2018-04-29T04:43:18.244Z,1132
2018-04-29T04:44:18.469Z,1212
2018-04-29T04:45:19.213Z,1180
2018-04-29T04:46:18.232Z,1220
2018-04-29T04:47:18.543Z,1288
2018-04-29T04:48:18.460Z,1296
2018-04-29T04:49:18.261Z,1384
2018-04-29T04:50:19.603Z,1552
2018-04-29T04:51:18.207Z,1860
2018-04-29T04:52:17.957Z,1900
2018-04-29T04:53:18.199Z,1804
2018-04-29T04:54:18.197Z,1880
2018-04-29T04:55:19.605Z,2264
2018-04-29T04:56:18.442Z,2664
2018-04-29T04:57:18.444Z,2324
2018-04-29T04:58:18.614Z,2032
2018-04-29T04:59:18.194Z,2168
2018-04-29T05:00:20.105Z,2336
2018-04-29T05:01:18.184Z,2832
2018-04-29T05:02:18.181Z,3584
2018-04-29T05:03:18.186Z,3248
2018-04-29T05:04:18.439Z,4360
2018-04-29T05:05:18.596Z,5544
2018-04-29T05:06:18.432Z,5940
2018-04-29T05:07:18.341Z,6308
2018-04-29T05:08:18.427Z,6424
2018-04-29T05:09:18.173Z,6512
2018-04-29T05:10:19.458Z,6568
2018-04-29T05:11:18.172Z,6512
2018-04-29T05:12:18.174Z,6452
2018-04-29T05:13:21.582Z,5700
2018-04-29T05:14:18.438Z,4268
2018-04-29T05:15:19.881Z,3852
2018-04-29T05:16:18.179Z,4188
2018-04-29T05:17:18.180Z,4468
2018-04-29T05:18:18.426Z,4528
2018-04-29T05:19:18.204Z,3796
2018-04-29T05:20:19.632Z,4292
2018-04-29T05:21:18.182Z,5076
2018-04-29T05:22:18.768Z,5188
2018-04-29T05:23:18.187Z,3780
2018-04-29T05:24:18.178Z,3000
2018-04-29T05:25:20.217Z,3044
2018-04-29T05:26:18.436Z,3120
2018-04-29T05:27:18.184Z,3164
2018-04-29T05:28:18.427Z,3232
2018-04-29T05:29:18.185Z,3544
2018-04-29T05:30:19.659Z,7516
2018-04-29T05:31:18.511Z,7256
2018-04-29T05:32:18.184Z,6916
2018-04-29T05:33:18.185Z,8460
2018-04-29T05:34:18.436Z,8720
2018-04-29T05:35:19.426Z,9792
2018-04-29T05:36:18.448Z,10232
2018-04-29T05:37:17.939Z,9784
2018-04-29T05:38:18.449Z,10060
2018-04-29T05:39:18.192Z,9984
2018-04-29T05:40:19.286Z,10560
2018-04-29T05:41:18.451Z,10376
2018-04-29T05:42:18.458Z,10928
2018-04-29T05:43:17.944Z,11132
2018-04-29T05:44:18.849Z,11096
2018-04-29T05:45:19.490Z,11344
2018-04-29T05:46:18.210Z,11524
2018-04-29T05:47:18.461Z,11616
2018-04-29T05:48:17.962Z,7272
2018-04-29T05:49:18.466Z,11804
2018-04-29T05:50:19.685Z,11524
2018-04-29T05:51:18.224Z,11992
2018-04-29T05:52:18.230Z,11996
2018-04-29T05:53:18.238Z,12068
2018-04-29T05:54:18.236Z,12132
2018-04-29T05:55:19.625Z,12140
2018-04-29T05:56:18.504Z,12160
2018-04-29T05:57:18.508Z,12284
2018-04-29T05:58:18.260Z,12372
2018-04-29T05:59:18.265Z,12436
2018-04-29T06:00:20.251Z,12516
2018-04-29T06:01:18.605Z,12472
2018-04-29T06:02:18.609Z,12520
2018-04-29T06:03:18.525Z,12624
2018-04-29T06:04:18.285Z,12672
2018-04-29T06:05:19.458Z,12688
2018-04-29T06:06:18.305Z,12748
2018-04-29T06:07:18.551Z,12784
2018-04-29T06:08:18.309Z,12844
2018-04-29T06:09:18.313Z,12892
2018-04-29T06:10:19.341Z,12920
2018-04-29T06:11:18.327Z,13000
2018-04-29T06:12:18.584Z,13048
2018-04-29T06:13:18.346Z,13076
2018-04-29T06:22:50.202Z,13588
2018-04-29T06:23:49.479Z,13620
2018-04-29T06:24:49.147Z,13680
2018-04-29T06:25:49.405Z,13720
2018-04-29T06:26:49.160Z,13768
2018-04-29T06:27:49.423Z,13768
2018-04-29T06:28:49.430Z,13848
2018-04-29T06:29:49.436Z,13864
2018-04-29T06:30:48.943Z,13872
2018-04-29T06:31:48.986Z,13924
2018-04-29T06:32:49.199Z,13928
2018-04-29T06:33:49.453Z,13984
2018-04-29T06:34:49.456Z,14000
2018-04-29T06:35:49.000Z,14008
2018-04-29T06:36:49.474Z,14128
2018-04-29T06:37:49.492Z,14220
2018-04-29T06:38:49.722Z,14264
2018-04-29T06:39:49.332Z,14312
2018-04-29T06:40:49.264Z,14300
2018-04-29T06:41:49.513Z,14232
2018-04-29T06:42:49.514Z,14260
2018-04-29T06:43:49.299Z,14000
2018-04-29T06:44:49.550Z,8560
2018-04-29T06:45:49.288Z,10512
2018-04-29T06:46:49.455Z,9132
2018-04-29T06:47:49.569Z,13796
2018-04-29T06:48:49.606Z,14840
2018-04-29T06:49:49.337Z,9824
2018-04-29T06:50:49.400Z,9280
2018-04-29T06:51:49.662Z,8520
2018-04-29T06:52:50.141Z,10212
2018-04-29T06:53:49.600Z,6308
2018-04-29T06:54:49.635Z,5620
2018-04-29T06:55:49.620Z,5328
2018-04-29T06:56:49.381Z,5508
2018-04-29T06:57:49.614Z,6244
2018-04-29T06:58:49.634Z,5920
2018-04-29T06:59:49.649Z,6336
2018-04-29T07:00:50.011Z,6584
2018-04-29T07:01:49.163Z,6644
2018-04-29T07:02:49.159Z,6480
2018-04-29T07:03:49.154Z,6144
2018-04-29T07:04:49.157Z,5812
2018-04-29T07:05:49.757Z,5428
2018-04-29T07:06:49.409Z,5436
2018-04-29T07:07:49.425Z,6188
2018-04-29T07:08:49.670Z,6432
2018-04-29T07:09:49.673Z,6276
2018-04-29T07:10:49.522Z,6552
2018-04-29T07:11:49.430Z,11224
2018-04-29T07:12:49.204Z,14496
2018-04-29T07:13:49.444Z,12632
2018-04-29T07:14:49.474Z,7852
2018-04-29T07:15:49.470Z,11344
2018-04-29T07:16:49.456Z,11372
2018-04-29T07:17:49.734Z,10156
2018-04-29T07:18:49.474Z,8136
2018-04-29T07:19:49.470Z,12020
2018-04-29T07:20:49.475Z,10160
2018-04-29T07:21:49.723Z,6928
2018-04-29T07:22:49.479Z,8068
2018-04-29T07:23:49.483Z,8244
2018-04-29T07:24:49.492Z,9248
2018-04-29T07:25:49.747Z,11140
2018-04-29T07:26:49.505Z,11956
2018-04-29T07:27:49.769Z,10308
2018-04-29T07:28:50.075Z,10960
2018-04-29T07:29:49.514Z,10888
2018-04-29T07:30:49.521Z,11832
2018-04-29T07:31:49.783Z,12144
2018-04-29T07:32:49.779Z,12544
2018-04-29T07:33:49.528Z,12684
2018-04-29T07:34:49.300Z,12480
2018-04-29T07:35:49.802Z,11976
2018-04-29T07:36:49.802Z,11408
2018-04-29T07:37:49.801Z,10700
2018-04-29T07:38:49.811Z,10816
2018-04-29T07:39:50.010Z,10664
2018-04-29T07:40:49.316Z,10824
2018-04-29T07:41:49.339Z,10004
2018-04-29T07:42:49.325Z,10184
2018-04-29T07:43:49.335Z,10812
2018-04-29T07:44:49.596Z,11808
2018-04-29T07:45:49.621Z,12040
2018-04-29T07:46:49.850Z,12240
2018-04-29T07:47:49.618Z,12132
2018-04-29T07:48:49.606Z,11992
2018-04-29T07:49:49.615Z,12104
2018-04-29T07:50:49.877Z,12316
2018-04-29T07:51:49.640Z,12440
2018-04-29T07:52:50.758Z,12452
2018-04-29T07:53:49.393Z,12416
2018-04-29T07:54:49.912Z,12364
2018-04-29T07:55:49.407Z,12284
2018-04-29T07:56:49.409Z,12292
2018-04-29T07:57:49.411Z,12288
2018-04-29T07:58:49.677Z,12332
2018-04-29T07:59:49.681Z,12352
2018-04-29T08:00:49.850Z,12300
2018-04-29T08:01:49.940Z,12308
2018-04-29T08:02:49.692Z,12280
2018-04-29T08:03:49.464Z,12204
2018-04-29T08:04:49.716Z,12168
2018-04-29T08:05:49.240Z,12036
2018-04-29T08:06:50.279Z,12076
2018-04-29T08:07:49.979Z,12088
2018-04-29T08:08:49.739Z,12120
2018-04-29T08:09:50.004Z,12152
2018-04-29T08:10:49.759Z,12076
2018-04-29T08:11:50.015Z,12036
2018-04-29T08:12:49.789Z,11996
2018-04-29T08:13:49.550Z,11924
2018-04-29T08:14:50.044Z,11856
2018-04-29T08:15:50.346Z,11784
2018-04-29T08:16:50.048Z,11708
2018-04-29T08:17:50.059Z,11600
2018-04-29T08:18:49.820Z,11520
2018-04-29T08:19:50.069Z,11424
2018-04-29T08:20:50.068Z,11320
2018-04-29T08:21:50.101Z,11196
2018-04-29T08:22:49.994Z,11104
2018-04-29T08:23:49.872Z,11008
2018-04-29T08:24:49.866Z,10932
2018-04-29T08:25:49.874Z,10848
2018-04-29T08:26:49.630Z,10772
2018-04-29T08:27:50.115Z,10692
2018-04-29T08:28:50.130Z,10596
2018-04-29T08:29:49.885Z,10520
2018-04-29T08:30:49.643Z,10428
2018-04-29T08:31:50.148Z,10320
2018-04-29T08:32:49.915Z,10256
2018-04-29T08:33:50.159Z,10192
2018-04-29T08:34:50.201Z,10092
2018-04-29T08:35:49.677Z,10064
2018-04-29T08:36:50.194Z,10016
2018-04-29T08:37:50.186Z,9964
2018-04-29T08:38:49.942Z,9908
2018-04-29T08:39:49.950Z,9868
2018-04-29T08:40:49.962Z,9840
2018-04-29T08:41:50.082Z,9820
2018-04-29T08:42:49.990Z,9812
2018-04-29T08:43:50.000Z,9800
2018-04-29T08:44:49.747Z,9772
2018-04-29T08:45:50.004Z,9744
2018-04-29T08:46:50.259Z,9700
2018-04-29T08:47:50.256Z,9680
2018-04-29T08:48:49.773Z,9660
2018-04-29T08:49:49.776Z,9636
2018-04-29T08:50:50.091Z,9604
2018-04-29T08:51:50.296Z,9576
2018-04-29T08:52:50.297Z,9456
2018-04-29T08:53:50.069Z,9512
2018-04-29T08:54:50.379Z,9508
2018-04-29T08:55:50.073Z,9508
2018-04-29T08:56:49.824Z,9500
2018-04-29T08:57:50.075Z,9500
2018-04-29T08:58:50.337Z,9508
2018-04-29T08:59:50.087Z,9512
2018-04-29T09:00:50.352Z,9512
2018-04-29T09:01:49.865Z,9512
2018-04-29T09:02:50.363Z,9516
2018-04-29T09:03:50.580Z,9512
2018-04-29T09:04:50.380Z,9532
2018-04-29T09:05:49.886Z,9548
2018-04-29T09:06:49.879Z,9572
2018-04-29T09:07:50.127Z,9592
2018-04-29T09:08:50.184Z,9596
2018-04-29T09:09:50.151Z,9592
2018-04-29T09:10:50.258Z,9584
2018-04-29T09:11:49.921Z,9576
2018-04-29T09:12:50.399Z,9576
2018-04-29T09:13:50.162Z,9576
2018-04-29T09:14:50.168Z,9576
2018-04-29T09:15:50.426Z,9576
2018-04-29T09:16:50.263Z,9592
2018-04-29T09:17:50.436Z,9612
2018-04-29T09:18:50.182Z,9624
2018-04-29T09:19:50.181Z,9644
2018-04-29T09:20:50.181Z,9664
2018-04-29T09:21:50.449Z,9708
2018-04-29T09:22:50.460Z,9768
2018-04-29T09:23:51.863Z,9784
2018-04-29T09:24:50.458Z,9796
2018-04-29T09:25:50.481Z,9796
2018-04-29T09:26:50.480Z,9764
2018-04-29T09:27:50.225Z,9740
2018-04-29T09:28:50.480Z,9708
2018-04-29T09:29:50.493Z,9660
2018-04-29T09:30:50.232Z,9608
2018-04-29T09:31:49.988Z,9560
2018-04-29T09:32:50.239Z,9512
2018-04-29T09:33:50.503Z,9472
2018-04-29T09:34:50.493Z,9432
2018-04-29T09:35:50.252Z,9388
2018-04-29T09:36:50.629Z,9316
2018-04-29T09:37:50.260Z,9264
2018-04-29T09:38:50.636Z,9216
2018-04-29T09:39:50.013Z,9176
2018-04-29T09:40:50.271Z,9096
2018-04-29T09:41:50.283Z,9000
2018-04-29T09:42:50.279Z,8896
2018-04-29T09:43:50.427Z,8828
2018-04-29T09:44:50.035Z,8856
2018-04-29T09:45:50.570Z,8836
2018-04-29T09:46:50.044Z,8832
2018-04-29T09:47:50.307Z,8788
2018-04-29T09:48:50.987Z,8732
2018-04-29T09:49:50.303Z,8684
2018-04-29T09:50:50.308Z,8648
2018-04-29T09:51:50.319Z,8596
2018-04-29T09:52:50.581Z,8524
2018-04-29T09:53:50.767Z,8500
2018-04-29T09:54:50.077Z,8444
2018-04-29T09:55:50.585Z,8420
2018-04-29T09:56:50.614Z,8368
2018-04-29T09:57:50.335Z,8312
2018-04-29T09:58:50.343Z,8260
2018-04-29T09:59:50.352Z,8224
2018-04-29T10:00:50.114Z,8196
2018-04-29T10:01:50.357Z,8160
2018-04-29T10:02:50.614Z,8112
2018-04-29T10:03:50.393Z,8048
2018-04-29T10:04:50.634Z,8000
2018-04-29T10:05:50.365Z,7964
2018-04-29T10:06:50.647Z,7928
2018-04-29T10:07:50.383Z,7880
2018-04-29T10:08:50.400Z,7864
2018-04-29T10:09:50.147Z,7832
2018-04-29T10:10:50.653Z,7784
2018-04-29T10:11:50.154Z,7732
2018-04-29T10:12:50.648Z,7700
2018-04-29T10:13:50.695Z,7644
2018-04-29T10:14:50.667Z,7624
2018-04-29T10:15:50.752Z,7596
2018-04-29T10:16:50.440Z,7568
2018-04-29T10:17:50.432Z,7512
2018-04-29T10:18:50.598Z,7488
2018-04-29T10:19:51.221Z,7432
2018-04-29T10:20:50.456Z,7416
2018-04-29T10:21:50.466Z,7356
2018-04-29T10:22:51.328Z,7352
2018-04-29T10:53:33.541Z,7152
2018-04-29T10:54:33.538Z,7124
2018-04-29T10:55:32.977Z,7088
2018-04-29T10:56:32.973Z,7056
2018-04-29T10:57:33.463Z,7024
2018-04-29T10:58:33.478Z,7004
2018-04-29T10:59:32.723Z,7000
2018-04-29T11:00:33.480Z,6972
2018-04-29T11:01:33.365Z,6952
2018-04-29T11:02:33.488Z,6932
2018-04-29T11:03:33.519Z,6884
2018-04-29T11:04:33.262Z,6864
2018-04-29T11:05:33.244Z,6816
2018-04-29T11:06:33.269Z,6788
2018-04-29T11:07:33.270Z,6756
2018-04-29T11:08:33.282Z,6732
2018-04-29T11:09:33.282Z,6696
2018-04-29T11:10:33.025Z,6668
2018-04-29T11:11:33.292Z,6632
2018-04-29T11:12:33.024Z,6612
2018-04-29T11:13:33.284Z,6600
2018-04-29T11:14:33.029Z,6568
2018-04-29T11:15:33.546Z,6548
2018-04-29T11:16:33.301Z,6520
2018-04-29T11:17:33.286Z,6492
2018-04-29T11:18:33.550Z,6484
2018-04-29T11:19:33.579Z,6464
2018-04-29T11:20:33.559Z,6444
2018-04-29T11:21:33.064Z,6424
2018-04-29T11:22:33.474Z,6408
2018-04-29T11:23:33.481Z,6372
2018-04-29T11:24:33.337Z,6348
2018-04-29T11:25:33.619Z,6320
2018-04-29T11:26:33.341Z,6264
2018-04-29T11:27:33.419Z,6280
2018-04-29T11:28:33.669Z,6260
2018-04-29T11:29:33.149Z,6228
2018-04-29T11:30:33.117Z,6208
2018-04-29T11:31:33.364Z,6220
2018-04-29T11:32:33.711Z,6164
2018-04-29T11:33:33.376Z,6200
2018-04-29T11:34:33.388Z,6244
2018-04-29T11:35:33.641Z,6256
2018-04-29T11:36:33.636Z,6260
2018-04-29T11:37:33.155Z,6296
2018-04-29T11:38:33.160Z,6352
2018-04-29T11:39:33.408Z,6360
2018-04-29T11:40:33.746Z,6340
2018-04-29T11:41:33.672Z,6328
2018-04-29T11:42:33.440Z,6328
2018-04-29T11:43:33.682Z,6232
2018-04-29T11:44:32.927Z,6188
2018-04-29T11:45:33.448Z,6180
2018-04-29T11:46:33.451Z,6152
2018-04-29T11:47:33.441Z,6164
2018-04-29T11:48:32.962Z,6148
2018-04-29T11:49:33.705Z,6156
2018-04-29T11:50:33.225Z,6136
2018-04-29T11:51:33.478Z,6116
2018-04-29T11:52:33.723Z,6088
2018-04-29T11:53:33.475Z,6036
2018-04-29T11:54:33.515Z,6060
2018-04-29T11:55:33.742Z,6192
2018-04-29T11:56:33.750Z,6172
2018-04-29T11:57:33.737Z,6172
2018-04-29T11:58:33.261Z,6196
2018-04-29T11:59:33.519Z,6184
2018-04-29T12:00:33.532Z,6200
2018-04-29T12:01:33.886Z,6224
2018-04-29T12:02:33.689Z,6252
2018-04-29T12:03:33.780Z,6232
2018-04-29T12:04:33.033Z,6208
2018-04-29T12:05:33.794Z,6276
2018-04-29T12:06:33.636Z,6376
2018-04-29T12:07:33.545Z,6488
2018-04-29T12:08:35.747Z,6600
2018-04-29T12:09:33.899Z,6672
2018-04-29T12:10:33.910Z,6740
2018-04-29T12:11:33.740Z,6712
2018-04-29T12:12:33.842Z,6856
2018-04-29T12:13:33.580Z,6924
2018-04-29T12:14:33.848Z,6956
2018-04-29T12:15:33.850Z,6992
2018-04-29T12:16:33.932Z,7048
2018-04-29T12:17:33.848Z,7116
2018-04-29T12:18:33.625Z,7172
2018-04-29T12:19:33.875Z,7192
2018-04-29T12:20:33.890Z,7216
2018-04-29T12:21:33.381Z,6880
2018-04-29T12:22:33.377Z,6740
2018-04-29T12:23:35.240Z,6172
2018-04-29T12:24:33.841Z,7076
2018-04-29T12:25:33.648Z,6984
2018-04-29T12:26:33.689Z,5916
2018-04-29T12:27:33.675Z,6612
2018-04-29T12:28:33.922Z,5812
2018-04-29T12:29:33.422Z,6400
2018-04-29T12:30:33.421Z,6988
2018-04-29T12:31:33.925Z,7132
2018-04-29T12:32:33.927Z,7316
2018-04-29T12:33:34.138Z,7620
2018-04-29T12:34:33.700Z,7916
2018-04-29T12:35:33.725Z,8104
2018-04-29T12:36:33.963Z,8124
2018-04-29T12:37:33.708Z,8012
2018-04-29T12:38:34.782Z,7812
2018-04-29T12:39:33.720Z,7596
2018-04-29T12:40:33.988Z,7348
2018-04-29T12:41:33.982Z,7088
2018-04-29T12:42:33.990Z,6876
2018-04-29T12:43:33.773Z,6704
2018-04-29T12:44:34.004Z,6584
2018-04-29T12:45:34.034Z,6480
2018-04-29T12:46:34.107Z,6380
2018-04-29T12:47:34.020Z,6276
2018-04-29T12:48:33.782Z,6200
2018-04-29T12:49:33.796Z,6120
2018-04-29T12:50:34.048Z,6064
2018-04-29T12:51:33.537Z,6000
2018-04-29T12:52:33.812Z,5956
2018-04-29T12:53:33.803Z,5888
2018-04-29T12:54:33.804Z,5876
2018-04-29T12:55:34.085Z,5836
2018-04-29T12:56:33.947Z,5816
2018-04-29T12:57:34.087Z,5796
2018-04-29T12:58:33.581Z,5788
2018-04-29T12:59:34.096Z,5780
2018-04-29T13:00:34.104Z,5764
2018-04-29T13:01:34.102Z,5772
2018-04-29T13:02:34.105Z,5768
2018-04-29T13:03:34.107Z,5764
2018-04-29T13:04:33.625Z,5732
2018-04-29T13:05:33.892Z,5720
2018-04-29T13:06:33.636Z,5724
2018-04-29T13:07:33.888Z,5744
2018-04-29T13:08:33.902Z,5716
2018-04-29T13:09:34.143Z,5708
2018-04-29T13:10:34.151Z,5672
2018-04-29T13:11:34.172Z,5636
2018-04-29T13:12:34.175Z,5632
2018-04-29T13:13:33.936Z,5620
2018-04-29T13:14:34.186Z,5592
2018-04-29T13:15:33.471Z,5568
2018-04-29T13:16:33.685Z,5548
2018-04-29T13:17:34.286Z,5532
2018-04-29T13:18:34.197Z,5548
2018-04-29T13:19:34.204Z,5504
2018-04-29T13:20:33.969Z,5508
2018-04-29T13:21:33.764Z,5508
2018-04-29T13:22:33.472Z,5504
2018-04-29T13:23:33.774Z,5516
2018-04-29T13:24:34.233Z,5512
2018-04-29T13:25:34.240Z,5508
2018-04-29T13:26:33.991Z,5508
2018-04-29T13:27:34.956Z,5484
2018-04-29T13:28:34.501Z,5484
2018-04-29T13:29:34.361Z,5464
2018-04-29T13:30:34.262Z,5456
2018-04-29T13:31:33.523Z,5460
2018-04-29T13:32:34.294Z,5448
2018-04-29T13:33:33.796Z,5436
2018-04-29T13:34:33.793Z,5416
2018-04-29T13:35:34.067Z,5416
2018-04-29T13:36:34.327Z,5420
2018-04-29T13:37:33.837Z,5436
2018-04-29T13:38:34.307Z,5448
2018-04-29T13:39:34.327Z,5460
2018-04-29T13:40:33.576Z,5468
2018-04-29T13:41:33.829Z,5444
2018-04-29T13:42:34.633Z,5428
2018-04-29T13:43:33.949Z,5416
2018-04-29T13:44:33.844Z,5396
2018-04-29T13:45:34.381Z,5396
2018-04-29T13:46:34.286Z,5368
2018-04-29T13:47:33.885Z,5340
2018-04-29T13:48:34.173Z,5316
2018-04-29T13:49:34.389Z,5276
2018-04-29T13:50:33.917Z,5304
2018-04-29T13:51:34.143Z,5300
2018-04-29T13:52:33.889Z,5300
2018-04-29T13:53:34.312Z,5272
2018-04-29T13:54:34.047Z,5280
2018-04-29T13:55:34.203Z,5252
2018-04-29T13:56:34.653Z,5252
2018-04-29T13:57:34.424Z,5224
2018-04-29T13:58:34.190Z,5236
2018-04-29T13:59:33.926Z,5228
2018-04-29T14:00:34.198Z,5220
2018-04-29T14:01:34.300Z,5248
2018-04-29T14:02:34.037Z,5112
2018-04-29T14:03:34.317Z,5236
2018-04-29T14:04:34.567Z,5264
2018-04-29T14:05:34.525Z,5268
2018-04-29T14:06:34.268Z,5288
2018-04-29T14:07:34.012Z,5308
2018-04-29T14:08:34.225Z,5288
2018-04-29T14:09:34.479Z,5292
2018-04-29T14:10:34.913Z,5308
2018-04-29T14:11:34.562Z,5308
2018-04-29T14:12:34.291Z,5308
2018-04-29T14:13:34.512Z,5316
2018-04-29T14:14:34.023Z,5324
2018-04-29T14:15:34.067Z,5304
2018-04-29T14:16:34.517Z,5288
2018-04-29T14:17:34.269Z,5280
2018-04-29T14:18:34.299Z,5308
2018-04-29T14:19:34.712Z,5332
2018-04-29T14:20:34.368Z,5348
2018-04-29T14:21:34.297Z,5360
2018-04-29T14:22:34.301Z,5388
2018-04-29T14:23:34.056Z,5416
2018-04-29T14:24:34.311Z,5456
2018-04-29T14:25:34.326Z,5480
2018-04-29T14:26:34.076Z,5508
2018-04-29T14:27:34.344Z,5516
2018-04-29T14:28:34.351Z,5532
2018-04-29T14:29:34.603Z,5560
2018-04-29T14:30:34.370Z,5568